createdAt,value
2022-11-28T00:01:35.303Z,96310.50
2022-11-28T00:04:01.630Z,96305.13
2022-11-28T00:06:28.245Z,96302.94
2022-11-28T00:08:54.862Z,96299.75
2022-11-28T00:11:21.189Z,96303.72
2022-11-28T00:13:47.486Z,96304.03
2022-11-28T00:16:13.849Z,96303.25
2022-11-28T00:18:40.214Z,96299.75
2022-11-28T00:21:06.515Z,96291.00
2022-11-28T00:23:32.821Z,96293.94
2022-11-28T00:25:59.227Z,96291.94
2022-11-28T00:28:25.524Z,96293.53
2022-11-28T00:30:51.827Z,96287.88
2022-11-28T00:33:18.214Z,96276.75
2022-11-28T00:35:44.533Z,96279.59
2022-11-28T00:38:10.842Z,96279.06
2022-11-28T00:40:37.159Z,96286.31
2022-11-28T00:43:03.464Z,96271.28
2022-11-28T00:45:29.846Z,96282.34
2022-11-28T00:47:56.190Z,96271.69
2022-11-28T00:50:22.487Z,96276.81
2022-11-28T00:52:48.783Z,96272.47
2022-11-28T00:55:15.112Z,96276.88
2022-11-28T00:57:41.421Z,96272.44
2022-11-28T01:00:07.728Z,96274.41
2022-11-28T01:02:34.149Z,96285.59
2022-11-28T01:05:00.489Z,96262.50
2022-11-28T01:07:26.848Z,96264.41
2022-11-28T01:09:53.217Z,96269.28
2022-11-28T01:12:19.538Z,96269.34
2022-11-28T01:14:45.920Z,96259.41
2022-11-28T01:17:12.245Z,96265.06
2022-11-28T01:19:38.543Z,96261.16
2022-11-28T01:22:04.852Z,96267.09
2022-11-28T01:24:31.168Z,96257.06
2022-11-28T01:26:57.455Z,96255.44
2022-11-28T01:29:23.752Z,96257.84
2022-11-28T01:31:50.100Z,96253.22
2022-11-28T01:34:16.438Z,96242.97
2022-11-28T01:36:42.734Z,96241.19
2022-11-28T01:39:09.253Z,96247.06
2022-11-28T01:41:35.559Z,96239.19
2022-11-28T01:44:01.855Z,96242.81
2022-11-28T01:46:28.285Z,96233.84
2022-11-28T01:48:54.657Z,96230.16
2022-11-28T01:51:20.966Z,96230.22
2022-11-28T01:53:47.281Z,96230.22
2022-11-28T01:56:13.580Z,96227.16
2022-11-28T01:58:39.877Z,96229.56
2022-11-28T02:01:06.278Z,96218.06
2022-11-28T02:03:32.621Z,96214.94
2022-11-28T02:05:58.922Z,96208.25
2022-11-28T02:08:25.234Z,96203.44
2022-11-28T02:10:51.549Z,96210.53
2022-11-28T02:13:17.853Z,96206.16
2022-11-28T02:15:44.175Z,96198.16
2022-11-28T02:18:10.482Z,96199.31
2022-11-28T02:20:36.784Z,96198.75
2022-11-28T02:23:03.105Z,96190.38
2022-11-28T02:25:29.411Z,96197.13
2022-11-28T02:27:55.708Z,96196.22
2022-11-28T02:30:22.037Z,96187.56
2022-11-28T02:32:48.360Z,96194.78
2022-11-28T02:35:14.668Z,96196.59
2022-11-28T02:37:40.987Z,96173.72
2022-11-28T02:40:07.288Z,96166.72
2022-11-28T02:42:33.593Z,96168.88
2022-11-28T02:45:00.003Z,96161.06
2022-11-28T02:47:26.318Z,96153.34
2022-11-28T02:49:52.611Z,96155.25
2022-11-28T02:52:18.941Z,96160.38
2022-11-28T02:54:45.240Z,96148.88
2022-11-28T02:57:11.555Z,96139.00
2022-11-28T02:59:37.880Z,96144.13
2022-11-28T03:02:04.214Z,96137.34
2022-11-28T03:04:30.627Z,96144.25
2022-11-28T03:06:56.982Z,96140.22
2022-11-28T03:09:23.283Z,96135.53
2022-11-28T03:11:49.601Z,96130.56
2022-11-28T03:14:15.916Z,96130.75
2022-11-28T03:16:42.305Z,96133.03
2022-11-28T03:19:08.652Z,96135.41
2022-11-28T03:21:34.981Z,96132.19
2022-11-28T03:24:01.280Z,96135.56
2022-11-28T03:26:27.600Z,96132.19
2022-11-28T03:28:53.922Z,96121.97
2022-11-28T03:31:20.238Z,96117.03
2022-11-28T03:33:46.559Z,96114.69
2022-11-28T03:36:12.872Z,96117.88
2022-11-28T03:38:39.170Z,96121.06
2022-11-28T03:41:05.458Z,96125.47
2022-11-28T03:43:31.777Z,96127.38
2022-11-28T03:45:58.083Z,96113.00
2022-11-28T03:48:24.393Z,96119.34
2022-11-28T03:50:50.760Z,96114.97
2022-11-28T03:53:17.068Z,96113.13
2022-11-28T03:55:43.516Z,96107.66
2022-11-28T03:58:09.920Z,96117.88
2022-11-28T04:00:36.207Z,96110.78
2022-11-28T04:03:02.570Z,96101.75
2022-11-28T04:05:28.929Z,96096.88
2022-11-28T04:07:55.305Z,96090.25
2022-11-28T04:10:21.672Z,96081.59
2022-11-28T04:12:47.995Z,96078.03
2022-11-28T04:15:14.353Z,96088.28
2022-11-28T04:17:40.666Z,96081.13
2022-11-28T04:20:06.976Z,96080.47
2022-11-28T04:22:33.284Z,96087.66
2022-11-28T04:24:59.580Z,96091.88
2022-11-28T04:27:25.896Z,96092.03
2022-11-28T04:29:52.196Z,96089.06
2022-11-28T04:32:18.500Z,96086.22
2022-11-28T04:34:45.097Z,96091.72
2022-11-28T04:37:11.545Z,96085.78
2022-11-28T04:39:37.845Z,96088.97
2022-11-28T04:42:04.175Z,96082.69
2022-11-28T04:44:30.468Z,96085.72
2022-11-28T04:46:56.775Z,96083.63
2022-11-28T04:49:23.116Z,96094.28
2022-11-28T04:51:49.409Z,96091.50
2022-11-28T04:54:15.704Z,96085.56
2022-11-28T04:56:42.064Z,96092.53
2022-11-28T04:59:08.372Z,96093.66
2022-11-28T05:01:34.664Z,96083.63
2022-11-28T05:04:00.980Z,96083.19
2022-11-28T05:06:27.278Z,96086.22
2022-11-28T05:08:53.583Z,96083.56
2022-11-28T05:11:19.887Z,96091.06
2022-11-28T05:13:46.175Z,96086.69
2022-11-28T05:16:12.488Z,96082.06
2022-11-28T05:18:38.804Z,96081.28
2022-11-28T05:21:05.095Z,96070.16
2022-11-28T05:23:31.393Z,96074.63
2022-11-28T05:25:57.720Z,96076.06
2022-11-28T05:28:24.021Z,96083.03
2022-11-28T05:30:50.312Z,96088.47
2022-11-28T05:33:16.631Z,96082.31
2022-11-28T05:35:42.932Z,96084.66
2022-11-28T05:38:13.444Z,96086.09
2022-11-28T05:40:40.043Z,96089.94
2022-11-28T05:43:06.337Z,96086.41
2022-11-28T05:45:32.681Z,96080.41
2022-11-28T05:47:59.010Z,96072.91
2022-11-28T05:50:25.290Z,96072.41
2022-11-28T05:52:51.577Z,96074.41
2022-11-28T05:55:17.899Z,96073.34
2022-11-28T05:57:44.192Z,96071.75
2022-11-28T06:00:10.483Z,96068.13
2022-11-28T06:02:36.884Z,96063.03
2022-11-28T06:05:16.496Z,96071.00
2022-11-28T06:07:49.534Z,96066.69
2022-11-28T06:10:17.026Z,96065.97
2022-11-28T06:12:43.322Z,96076.13
2022-11-28T06:15:09.632Z,96074.41
2022-11-28T06:17:35.937Z,96072.47
2022-11-28T06:20:02.239Z,96078.63
2022-11-28T06:22:28.560Z,96080.41
2022-11-28T06:24:54.867Z,96076.34
2022-11-28T06:27:21.176Z,96081.06
2022-11-28T06:29:47.495Z,96079.41
2022-11-28T06:32:16.553Z,96071.50
2022-11-28T06:34:46.778Z,96079.03
2022-11-28T06:37:13.096Z,96084.88
2022-11-28T06:39:39.468Z,96074.75
2022-11-28T06:42:05.867Z,96081.91
2022-11-28T06:44:32.175Z,96080.00
2022-11-28T06:46:58.468Z,96085.06
2022-11-28T06:49:24.751Z,96086.56
2022-11-28T06:51:51.063Z,96082.25
2022-11-28T06:54:17.393Z,96084.28
2022-11-28T06:56:43.684Z,96084.56
2022-11-28T06:59:10.089Z,96085.03
2022-11-28T07:01:36.420Z,96080.78
2022-11-28T07:04:02.720Z,96085.06
2022-11-28T07:06:29.085Z,96085.31
2022-11-28T07:08:55.391Z,96077.00
2022-11-28T07:11:21.705Z,96084.09
2022-11-28T07:13:48.012Z,96084.97
2022-11-28T07:16:14.445Z,96078.72
2022-11-28T07:18:40.822Z,96082.25
2022-11-28T07:21:07.151Z,96084.56
2022-11-28T07:23:33.453Z,96081.38
2022-11-28T07:25:59.843Z,96080.97
2022-11-28T07:28:26.179Z,96080.88
2022-11-28T07:30:52.476Z,96090.34
2022-11-28T07:33:18.763Z,96098.38
2022-11-28T07:35:45.079Z,96088.91
2022-11-28T07:38:11.374Z,96094.44
2022-11-28T07:40:37.665Z,96095.97
2022-11-28T07:43:03.980Z,96095.69
2022-11-28T07:45:47.341Z,96095.31
2022-11-28T07:48:16.575Z,96099.69
2022-11-28T07:50:42.888Z,96097.94
2022-11-28T07:53:09.209Z,96093.94
2022-11-28T07:55:35.529Z,96089.53
2022-11-28T07:58:01.980Z,96091.88
2022-11-28T08:00:28.283Z,96100.53
2022-11-28T08:02:54.614Z,96105.19
2022-11-28T08:05:20.930Z,96098.81
2022-11-28T08:07:47.280Z,96101.38
2022-11-28T08:10:13.772Z,96104.56
2022-11-28T08:12:40.071Z,96098.34
2022-11-28T08:15:06.372Z,96093.06
2022-11-28T08:17:32.709Z,96095.50
2022-11-28T08:19:59.016Z,96096.28
2022-11-28T08:22:25.311Z,96090.47
2022-11-28T08:24:51.642Z,96096.81
2022-11-28T08:27:17.940Z,96096.03
2022-11-28T08:29:46.150Z,96087.38
2022-11-28T08:32:15.524Z,96082.69
2022-11-28T08:34:41.832Z,96082.09
2022-11-28T08:37:08.148Z,96079.91
2022-11-28T08:39:34.501Z,96090.31
2022-11-28T08:42:00.809Z,96085.09
2022-11-28T08:44:27.107Z,96082.78
2022-11-28T08:46:53.449Z,96079.22
2022-11-28T08:49:19.760Z,96074.50
2022-11-28T08:51:46.069Z,96083.19
2022-11-28T08:54:12.403Z,96077.22
2022-11-28T08:56:38.704Z,96072.78
2022-11-28T08:59:05.000Z,96063.22
2022-11-28T09:01:31.407Z,96066.09
2022-11-28T09:03:57.849Z,96075.34
2022-11-28T09:06:24.213Z,96070.44
2022-11-28T09:08:50.539Z,96084.66
2022-11-28T09:11:16.851Z,96080.53
2022-11-28T09:13:43.146Z,96084.16
2022-11-28T09:16:09.507Z,96077.84
2022-11-28T09:18:35.808Z,96073.50
2022-11-28T09:21:02.132Z,96078.63
2022-11-28T09:23:28.446Z,96081.94
2022-11-28T09:25:54.759Z,96075.16
2022-11-28T09:28:21.068Z,96076.44
2022-11-28T09:30:47.456Z,96075.28
2022-11-28T09:33:13.786Z,96074.41
2022-11-28T09:35:40.091Z,96073.19
2022-11-28T09:38:06.421Z,96065.88
2022-11-28T09:40:34.052Z,96064.69
2022-11-28T09:43:00.374Z,96059.69
2022-11-28T09:45:26.706Z,96064.34
2022-11-28T09:47:53.029Z,96058.56
2022-11-28T09:50:19.379Z,96060.47
2022-11-28T09:52:45.844Z,96065.00
2022-11-28T09:55:12.225Z,96062.19
2022-11-28T09:57:38.534Z,96061.22
2022-11-28T10:00:04.865Z,96064.63
2022-11-28T10:02:34.055Z,96061.34
2022-11-28T10:05:00.457Z,96051.13
2022-11-28T10:07:26.999Z,96052.78
2022-11-28T10:09:53.344Z,96053.63
2022-11-28T10:12:19.638Z,96043.50
2022-11-28T10:14:45.964Z,96038.47
2022-11-28T10:17:12.316Z,96037.97
2022-11-28T10:19:53.966Z,96043.16
2022-11-28T10:22:21.127Z,96041.97
2022-11-28T10:24:47.422Z,96032.41
2022-11-28T10:27:13.719Z,96028.22
2022-11-28T10:29:40.063Z,96022.72
2022-11-28T10:32:06.362Z,96024.03
2022-11-28T10:34:32.670Z,96026.69
2022-11-28T10:36:58.995Z,96019.31
2022-11-28T10:39:25.300Z,96022.53
2022-11-28T10:41:51.604Z,96016.88
2022-11-28T10:44:21.495Z,96019.88
2022-11-28T10:46:48.120Z,96006.38
2022-11-28T10:49:14.429Z,96011.16
2022-11-28T10:51:40.756Z,96001.69
2022-11-28T10:54:07.051Z,96000.69
2022-11-28T10:56:33.435Z,96008.03
2022-11-28T10:58:59.786Z,96005.22
2022-11-28T11:01:26.171Z,96003.00
2022-11-28T11:03:52.516Z,96000.06
2022-11-28T11:06:18.956Z,96002.28
2022-11-28T11:08:45.263Z,95989.66
2022-11-28T11:11:11.571Z,96001.34
2022-11-28T11:13:37.911Z,95996.78
2022-11-28T11:16:04.261Z,95988.16
2022-11-28T11:18:30.615Z,95992.63
2022-11-28T11:20:56.953Z,95986.47
2022-11-28T11:23:23.256Z,95989.31
2022-11-28T11:25:49.679Z,95989.13
2022-11-28T11:28:16.054Z,95997.16
2022-11-28T11:30:42.436Z,95991.53
2022-11-28T11:33:08.780Z,95993.09
2022-11-28T11:35:35.106Z,95992.75
2022-11-28T11:38:01.417Z,95994.97
2022-11-28T11:40:27.728Z,95997.75
2022-11-28T11:42:54.072Z,95988.28
2022-11-28T11:45:20.385Z,95988.31
2022-11-28T11:47:46.697Z,95982.31
2022-11-28T11:50:13.052Z,95983.53
2022-11-28T11:52:39.367Z,95981.59
2022-11-28T11:55:05.679Z,95976.25
2022-11-28T11:57:33.974Z,95979.34
2022-11-28T12:00:00.783Z,95987.19
2022-11-28T12:02:27.154Z,95981.63
2022-11-28T12:04:55.479Z,95992.47
2022-11-28T12:07:22.143Z,95982.00
2022-11-28T12:09:48.496Z,95982.56
2022-11-28T12:12:14.828Z,95978.94
2022-11-28T12:14:41.142Z,95976.31
2022-11-28T12:17:25.596Z,95974.59
2022-11-28T12:19:53.765Z,95967.47
2022-11-28T12:22:20.080Z,95963.25
2022-11-28T12:24:46.920Z,95955.56
2022-11-28T12:27:13.497Z,95957.53
2022-11-28T12:29:39.802Z,95963.53
2022-11-28T12:32:06.101Z,95960.63
2022-11-28T12:34:32.465Z,95951.94
2022-11-28T12:36:58.769Z,95943.75
2022-11-28T12:39:25.064Z,95941.13
2022-11-28T12:41:51.381Z,95940.38
2022-11-28T12:44:17.683Z,95942.44
2022-11-28T12:46:44.040Z,95931.47
2022-11-28T12:49:10.375Z,95929.13
2022-11-28T12:51:36.694Z,95922.31
2022-11-28T12:54:02.994Z,95932.78
2022-11-28T12:56:29.369Z,95936.34
2022-11-28T12:58:55.674Z,95938.78
2022-11-28T13:01:22.088Z,95937.63
2022-11-28T13:03:48.731Z,95932.16
2022-11-28T13:06:15.044Z,95931.72
2022-11-28T13:08:47.974Z,95941.75
2022-11-28T13:11:14.945Z,95928.94
2022-11-28T13:13:41.240Z,95931.53
2022-11-28T13:16:07.566Z,95932.00
2022-11-28T13:18:33.933Z,95933.22
2022-11-28T13:21:00.227Z,95934.84
2022-11-28T13:23:26.540Z,95939.97
2022-11-28T13:25:52.852Z,95940.25
2022-11-28T13:28:19.152Z,95940.81
2022-11-28T13:30:45.531Z,95933.84
2022-11-28T13:33:11.900Z,95931.47
2022-11-28T13:35:38.200Z,95944.81
2022-11-28T13:40:50.833Z,95934.72
2022-11-28T13:43:17.140Z,95931.75
2022-11-28T13:45:43.438Z,95935.91
2022-11-28T13:48:09.757Z,95938.34
2022-11-28T13:50:36.070Z,95934.69
2022-11-28T13:53:02.376Z,95939.41
2022-11-28T13:55:28.699Z,95936.78
2022-11-28T13:57:55.004Z,95936.97
2022-11-28T14:00:21.311Z,95943.75
2022-11-28T14:02:47.685Z,95950.00
2022-11-28T14:05:14.062Z,95944.09
2022-11-28T14:07:40.512Z,95959.00
2022-11-28T14:10:06.909Z,95958.72
2022-11-28T14:12:33.210Z,95948.16
2022-11-28T14:14:59.509Z,95952.06
2022-11-28T14:17:25.825Z,95961.19
2022-11-28T14:19:52.125Z,95960.78
2022-11-28T14:22:18.427Z,95971.31
2022-11-28T14:24:44.897Z,95969.03
2022-11-28T14:27:11.371Z,95975.56
2022-11-28T14:29:37.662Z,95971.38
2022-11-28T14:34:50.260Z,95973.03
2022-11-28T14:37:16.577Z,95978.94
2022-11-28T14:39:42.862Z,95973.72
2022-11-28T14:42:09.156Z,95979.72
2022-11-28T14:44:35.596Z,95983.84
2022-11-28T14:47:01.993Z,95973.53
2022-11-28T14:49:28.423Z,95979.94
2022-11-28T14:52:15.814Z,95976.94
2022-11-28T14:54:41.010Z,95975.28
2022-11-28T14:57:07.337Z,95979.06
2022-11-28T14:59:33.644Z,95976.22
2022-11-28T15:01:59.978Z,95980.00
2022-11-28T15:04:26.323Z,95970.88
2022-11-28T15:06:52.619Z,95985.31
2022-11-28T15:09:18.925Z,95981.84
2022-11-28T15:11:45.235Z,95982.19
2022-11-28T15:14:11.523Z,95980.28
2022-11-28T15:16:37.876Z,95992.97
2022-11-28T15:19:04.207Z,95992.53
2022-11-28T15:21:30.506Z,95997.31
2022-11-28T15:23:56.814Z,95990.97
2022-11-28T15:26:23.112Z,96003.44
2022-11-28T15:28:49.404Z,96004.06
2022-11-28T15:31:15.799Z,95995.88
2022-11-28T15:33:42.153Z,96005.63
2022-11-28T15:36:08.549Z,96012.06
2022-11-28T15:38:34.832Z,96012.69
2022-11-28T15:41:01.146Z,96010.84
2022-11-28T15:43:27.441Z,96016.69
2022-11-28T15:45:53.733Z,96013.41
2022-11-28T15:48:20.094Z,96024.00
2022-11-28T15:50:46.389Z,96026.28
2022-11-28T15:53:12.695Z,96019.31
2022-11-28T15:55:39.026Z,96025.84
2022-11-28T15:58:05.334Z,96028.72
2022-11-28T16:00:31.670Z,96033.25
2022-11-28T16:02:58.004Z,96029.78
2022-11-28T16:05:24.285Z,96031.63
2022-11-28T16:07:50.712Z,96033.34
2022-11-28T16:10:17.082Z,96034.28
2022-11-28T16:12:43.401Z,96039.03
2022-11-28T16:15:09.701Z,96041.03
2022-11-28T16:17:36.019Z,96046.28
2022-11-28T16:20:02.315Z,96046.72
2022-11-28T16:22:28.612Z,96044.22
2022-11-28T16:24:54.919Z,96039.25
2022-11-28T16:27:21.219Z,96040.75
2022-11-28T16:29:47.523Z,96042.03
2022-11-28T16:32:13.847Z,96051.75
2022-11-28T16:34:40.219Z,96041.72
2022-11-28T16:37:06.543Z,96054.53
2022-11-28T16:39:36.528Z,96048.63
2022-11-28T16:42:03.032Z,96049.53
2022-11-28T16:44:29.328Z,96056.97
2022-11-28T16:46:55.654Z,96060.22
2022-11-28T16:49:21.966Z,96061.69
2022-11-28T16:51:48.270Z,96061.13
2022-11-28T16:54:14.635Z,96058.31
2022-11-28T16:56:40.928Z,96049.63
2022-11-28T16:59:07.223Z,96051.50
2022-11-28T17:01:33.585Z,96053.38
2022-11-28T17:03:59.916Z,96055.44
2022-11-28T17:06:26.219Z,96062.78
2022-11-28T17:08:52.535Z,96067.84
2022-11-28T17:11:18.837Z,96060.34
2022-11-28T17:13:45.125Z,96057.56
2022-11-28T17:16:11.495Z,96054.56
2022-11-28T17:18:37.845Z,96057.28
2022-11-28T17:21:04.145Z,96056.25
2022-11-28T17:23:30.463Z,96063.25
2022-11-28T17:25:56.758Z,96052.78
2022-11-28T17:28:27.785Z,96050.63
2022-11-28T17:30:55.356Z,96052.41
2022-11-28T17:33:21.651Z,96056.63
2022-11-28T17:35:48.039Z,96051.25
2022-11-28T17:38:14.378Z,96056.22
2022-11-28T17:40:40.676Z,96054.34
2022-11-28T17:43:07.027Z,96055.59
2022-11-28T17:45:33.420Z,96052.81
2022-11-28T17:47:59.733Z,96054.59
2022-11-28T17:50:26.017Z,96064.88
2022-11-28T17:52:52.319Z,96061.69
2022-11-28T17:55:18.606Z,96057.38
2022-11-28T17:57:44.901Z,96065.31
2022-11-28T18:00:11.382Z,96065.47
2022-11-28T18:02:37.720Z,96057.38
2022-11-28T18:05:04.064Z,96063.00
2022-11-28T18:07:30.398Z,96065.13
2022-11-28T18:09:56.699Z,96058.44
2022-11-28T18:12:22.997Z,96065.22
2022-11-28T18:14:58.193Z,96061.22
2022-11-28T18:17:24.500Z,96061.50
2022-11-28T18:19:55.931Z,96058.56
2022-11-28T18:22:23.707Z,96064.53
2022-11-28T18:24:50.080Z,96061.13
2022-11-28T18:27:16.490Z,96067.84
2022-11-28T18:29:43.161Z,96061.56
2022-11-28T18:32:09.735Z,96062.91
2022-11-28T18:34:36.051Z,96062.59
2022-11-28T18:37:02.350Z,96064.47
2022-11-28T18:39:28.661Z,96067.53
2022-11-28T18:41:54.988Z,96077.44
2022-11-28T18:44:21.290Z,96071.47
2022-11-28T18:46:47.593Z,96072.78
2022-11-28T18:49:13.907Z,96073.78
2022-11-28T18:51:40.214Z,96069.34
2022-11-28T18:54:06.516Z,96066.47
2022-11-28T18:56:32.845Z,96075.97
2022-11-28T18:58:59.163Z,96069.63
2022-11-28T19:01:25.599Z,96067.56
2022-11-28T19:03:51.997Z,96067.78
2022-11-28T19:06:18.295Z,96077.13
2022-11-28T19:08:44.587Z,96068.66
2022-11-28T19:11:10.916Z,96065.78
2022-11-28T19:13:37.216Z,96068.34
2022-11-28T19:16:03.609Z,96069.13
2022-11-28T19:18:30.746Z,96064.16
2022-11-28T19:20:57.049Z,96071.31
2022-11-28T19:23:23.344Z,96066.47
2022-11-28T19:25:49.659Z,96074.00
2022-11-28T19:28:15.943Z,96075.88
2022-11-28T19:30:42.246Z,96082.72
2022-11-28T19:33:08.567Z,96081.66
2022-11-28T19:35:34.864Z,96079.44
2022-11-28T19:38:01.165Z,96080.28
2022-11-28T19:40:27.507Z,96081.94
2022-11-28T19:42:53.806Z,96077.78
2022-11-28T19:45:20.109Z,96083.56
2022-11-28T19:47:46.430Z,96081.22
2022-11-28T19:50:12.736Z,96074.00
2022-11-28T19:52:39.037Z,96078.09
2022-11-28T19:55:05.355Z,96083.75
2022-11-28T19:57:31.657Z,96072.00
2022-11-28T19:59:57.953Z,96089.28
2022-11-28T20:02:24.316Z,96093.75
2022-11-28T20:04:50.639Z,96089.00
2022-11-28T20:07:16.976Z,96086.81
2022-11-28T20:09:43.734Z,96090.22
2022-11-28T20:12:10.157Z,96089.09
2022-11-28T20:14:36.509Z,96088.56
2022-11-28T20:17:02.911Z,96087.91
2022-11-28T20:19:29.216Z,96093.00
2022-11-28T20:21:55.517Z,96095.41
2022-11-28T20:24:21.835Z,96097.13
2022-11-28T20:26:48.135Z,96095.63
2022-11-28T20:29:14.441Z,96095.97
2022-11-28T20:31:40.810Z,96100.59
2022-11-28T20:34:07.146Z,96107.03
2022-11-28T20:36:33.456Z,96102.84
2022-11-28T20:38:59.795Z,96104.09
2022-11-28T20:41:26.130Z,96100.50
2022-11-28T20:43:52.429Z,96101.16
2022-11-28T20:46:18.743Z,96101.22
2022-11-28T20:48:45.043Z,96100.03
2022-11-28T20:51:11.325Z,96099.84
2022-11-28T20:53:37.635Z,96105.16
2022-11-28T20:56:03.930Z,96109.06
2022-11-28T20:58:30.230Z,96115.56
2022-11-28T21:00:56.580Z,96106.19
2022-11-28T21:03:22.885Z,96109.09
2022-11-28T21:05:49.178Z,96109.38
2022-11-28T21:08:15.483Z,96103.31
2022-11-28T21:10:41.757Z,96104.84
2022-11-28T21:13:08.034Z,96096.88
2022-11-28T21:15:34.482Z,96096.59
2022-11-28T21:18:00.782Z,96098.50
2022-11-28T21:20:27.075Z,96096.88
2022-11-28T21:22:53.397Z,96100.28
2022-11-28T21:25:19.686Z,96104.53
2022-11-28T21:27:45.986Z,96105.16
2022-11-28T21:30:12.296Z,96097.19
2022-11-28T21:32:38.594Z,96099.09
2022-11-28T21:35:04.947Z,96099.50
2022-11-28T21:37:31.273Z,96099.19
2022-11-28T21:39:57.580Z,96093.66
2022-11-28T21:42:23.868Z,96102.72
2022-11-28T21:44:50.192Z,96098.97
2022-11-28T21:47:16.506Z,96104.31
2022-11-28T21:49:43.124Z,96105.75
2022-11-28T21:52:09.661Z,96106.19
2022-11-28T21:54:35.958Z,96108.50
2022-11-28T21:57:02.257Z,96106.53
2022-11-28T21:59:28.572Z,96107.75
2022-11-28T22:01:55.002Z,96110.16
2022-11-28T22:04:21.398Z,96117.63
2022-11-28T22:06:47.766Z,96108.59
2022-11-28T22:09:14.060Z,96114.50
2022-11-28T22:11:40.367Z,96113.41
2022-11-28T22:14:06.690Z,96111.47
2022-11-28T22:16:33.109Z,96106.41
2022-11-28T22:18:59.446Z,96103.97
2022-11-28T22:24:12.102Z,96105.81
2022-11-28T22:26:38.447Z,96095.56
2022-11-28T22:29:04.756Z,96100.38
2022-11-28T22:31:31.089Z,96102.63
2022-11-28T22:33:57.443Z,96103.59
2022-11-28T22:36:23.726Z,96093.72
2022-11-28T22:38:50.006Z,96102.84
2022-11-28T22:41:16.323Z,96103.16
2022-11-28T22:43:42.623Z,96100.25
2022-11-28T22:46:08.975Z,96100.34
2022-11-28T22:48:35.341Z,96108.25
2022-11-28T22:51:01.657Z,96101.03
2022-11-28T22:53:27.951Z,96103.34
2022-11-28T22:55:54.260Z,96111.78
2022-11-28T22:58:20.557Z,96112.56
2022-11-28T23:00:46.868Z,96098.25
2022-11-28T23:03:13.261Z,96105.88
2022-11-28T23:05:39.654Z,96104.69
2022-11-28T23:08:05.953Z,96109.06
2022-11-28T23:10:32.275Z,96104.03
2022-11-28T23:12:58.575Z,96096.66
2022-11-28T23:15:24.882Z,96102.91
2022-11-28T23:17:51.182Z,96101.22
2022-11-28T23:20:17.489Z,96101.28
2022-11-28T23:22:43.789Z,96101.28
2022-11-28T23:25:11.511Z,96110.34
2022-11-28T23:27:37.815Z,96100.53
2022-11-28T23:30:04.109Z,96104.50
2022-11-28T23:32:30.424Z,96104.63
2022-11-28T23:34:56.707Z,96101.16
2022-11-28T23:37:22.999Z,96105.97
2022-11-28T23:39:49.316Z,96103.53
2022-11-28T23:42:15.603Z,96098.41
2022-11-28T23:44:42.197Z,96100.06
2022-11-28T23:47:08.661Z,96104.25
2022-11-28T23:49:34.971Z,96098.19
2022-11-28T23:52:01.267Z,96100.78
2022-11-28T23:54:27.578Z,96096.63
2022-11-28T23:56:53.873Z,96097.72
2022-11-28T23:59:20.174Z,96094.56
